Flight Track Log - Related Links

Times and Time Zones

All times are in EDT time to prevent confusion due to time zone crossing. See the N779NC flight status page for this flight to view local times or setup timezone preferences in your user account.

Time Position Orientation Groundspeed Altitude Reporting Facility
EDT Latitude Longitude Course Direction KTS MPH feet Rate Location/Type
Fri 07:54:15 AM 36.1167 -86.6833 340° North 149 171 1,400  Level Nashville TRACON
Fri 07:55:15 AM 36.1000 -86.7500 253° West 216 249 2,900 1,800 Climbing Nashville TRACON
Fri 07:56:15 AM 36.1667 -86.7667 349° North 252 290 5,000 2,250 Climbing Nashville TRACON
Fri 07:57:00 AM 36.5507 -86.8753 338° Northwest  Level FlightAware Approximate
Fri 07:57:15 AM 36.2500 -86.7667 360° North 277 319 7,400  Level Nashville TRACON
Fri 07:58:00 AM 36.6587 -86.9293 338° Northwest  Level FlightAware Approximate
Fri 07:58:26 AM 36.3400 -86.7656 North 285 328 10,500  Level Memphis Center
Fri 07:59:00 AM 36.7676 -86.9803 340° North  Level FlightAware Approximate
Fri 07:59:26 AM 36.4272 -86.7514 North 301 346 12,600  Level Memphis Center
Fri 08:00:26 AM 36.5217 -86.7083 20° North 338 389 13,500 1,450 Climbing Memphis Center
Fri 08:01:26 AM 36.6119 -86.6553 25° Northeast 373 429 15,500 1,950 Climbing Memphis Center
Fri 08:02:26 AM 36.7186 -86.6036 21° North 403 464 17,400 1,800 Climbing Memphis Center
Fri 08:03:26 AM 36.8367 -86.5775 10° North 420 483 19,100 1,600 Climbing Memphis Center
Fri 08:04:26 AM 36.9581 -86.5925 354° North 426 490 20,600 1,389 Climbing Memphis Center
Fri 08:06:36 AM 37.2333 -86.6064 358° North 459 528 23,500 1,319 Climbing Indianapolis Center
Fri 08:07:37 AM 37.3661 -86.6161 357° North 471 542 24,800 1,180 Climbing Indianapolis Center
Fri 08:08:38 AM 37.5014 -86.6114 North 480 552 25,900 1,279 Climbing Indianapolis Center
Fri 08:09:39 AM 37.6306 -86.6042 North 486 559 27,400 1,240 Climbing Indianapolis Center
Fri 08:10:39 AM 37.7658 -86.6111 358° North 485 558 28,400 942 Climbing Indianapolis Center
Fri 08:11:40 AM 37.9036 -86.6119 360° North 494 568 29,300 1,082 Climbing Indianapolis Center
Fri 08:12:41 AM 38.0697 -86.6019 North 499 574 30,600 1,377 Climbing Indianapolis Center
Fri 08:13:42 AM 38.2064 -86.6033 360° North 495 570 32,100 1,131 Climbing Indianapolis Center
Fri 08:14:43 AM 38.3419 -86.6078 359° North 492 566 32,900 443 Climbing Indianapolis Center
Fri 08:15:44 AM 38.4806 -86.6022 North 499 574 33,000 49 Climbing Indianapolis Center
Fri 08:16:45 AM 38.6258 -86.5892 North 518 596 33,000  Level Indianapolis Center
Fri 08:17:46 AM 38.7711 -86.5744 North 523 602 33,000  Level Indianapolis Center
Fri 08:18:46 AM 38.9119 -86.5692 North 516 594 33,000  Level Indianapolis Center
Fri 08:19:47 AM 39.0531 -86.5458 North 513 590 33,000 49 Level Indianapolis Center
Fri 08:20:48 AM 39.1944 -86.5233 North 511 588 33,100  Climbing Indianapolis Center
Fri 08:21:49 AM 39.3339 -86.4894 11° North 512 589 33,000 -49 Descending Indianapolis Center
Fri 08:22:50 AM 39.4742 -86.4553 11° North 512 589 33,000  Level Indianapolis Center
Fri 08:23:51 AM 39.6169 -86.4289 North 514 592 33,000  Level Indianapolis Center
Fri 08:24:52 AM 39.7622 -86.3950 10° North 516 594 33,000 49 Level Indianapolis Center
Fri 08:25:53 AM 39.9075 -86.3433 15° North 524 603 33,100  Climbing Indianapolis Center
Fri 08:26:54 AM 40.0278 -86.2431 33° Northeast 513 590 33,000 -254 Descending Indianapolis Center
Fri 08:27:51 AM 40.1433 -86.1342 36° Northeast 511 588 32,600 -763 Descending Chicago Center
Fri 08:28:52 AM 40.2619 -86.0286 34° Northeast 513 590 31,500 -1,082 Descending Chicago Center
Fri 08:29:53 AM 40.3844 -85.9244 33° Northeast 521 600 30,400 -1,131 Descending Chicago Center
Fri 08:30:54 AM 40.5053 -85.8219 33° Northeast 521 600 29,200 -1,180 Descending Chicago Center
Fri 08:31:55 AM 40.6169 -85.7042 39° Northeast 516 594 28,000 -1,180 Descending Chicago Center
Fri 08:32:56 AM 40.7194 -85.5753 44° Northeast 512 589 26,800 -1,672 Descending Chicago Center
Fri 08:33:57 AM 40.8386 -85.4206 44° Northeast 504 580 24,600 -1,770 Descending Chicago Center
Fri 08:34:58 AM 40.9289 -85.2928 47° Northeast 485 558 23,200 -1,131 Descending Chicago Center
Fri 08:35:59 AM 41.0200 -85.1675 46° Northeast 480 552 22,300 -836 Descending Chicago Center
Fri 08:37:00 AM 41.1150 -85.0494 43° Northeast 476 548 21,500 -639 Descending Chicago Center
Fri 08:38:01 AM 41.2136 -84.9431 39° Northeast 466 536 21,000 -246 Descending Chicago Center
Fri 08:39:02 AM 41.3119 -84.8381 39° Northeast 460 529 21,000 -148 Level Chicago Center
Fri 08:40:03 AM 41.4072 -84.7278 41° Northeast 459 528 20,700 -1,122 Descending Chicago Center
Fri 08:41:05 AM 41.4997 -84.6314 38° Northeast 433 498 18,700 -2,146 Descending Chicago Center
Fri 08:42:06 AM 41.6017 -84.5236 38° Northeast 398 458 16,300 -2,073 Descending Chicago Center
Fri 08:42:55 AM 41.6656 -84.4472 42° Northeast 398 458 14,900 -1,761 Descending Cleveland Center
Fri 08:43:55 AM 41.7111 -84.3303 62° Northeast 360 414 13,100 -1,300 Descending Cleveland Center
Fri 08:44:55 AM 41.7458 -84.2208 67° East 350 403 12,300 -500 Descending Cleveland Center
Fri 08:45:55 AM 41.7892 -84.0981 65° Northeast 350 403 12,100 -100 Descending Cleveland Center
Fri 08:46:55 AM 41.8344 -83.9833 62° Northeast 350 403 12,100 -50 Level Cleveland Center
Fri 08:47:55 AM 41.9081 -83.8925 43° Northeast 350 403 12,000 -50 Descending Cleveland Center
Fri 08:48:55 AM 41.9817 -83.7983 44° Northeast 350 403 12,000  Level Cleveland Center
Fri 08:49:55 AM 42.0550 -83.7097 42° Northeast 350 403 12,000  Level Cleveland Center
Fri 08:50:55 AM 42.1261 -83.6236 42° Northeast 350 403 12,000 50 Level Cleveland Center
Fri 08:51:55 AM 42.2094 -83.5436 35° Northeast 340 391 12,100 -550 Climbing Cleveland Center
Fri 08:52:55 AM 42.2858 -83.4967 24° Northeast 307 353 10,900 -1,150 Descending Cleveland Center
Fri 08:53:55 AM 42.3469 -83.4600 24° Northeast 290 334 9,800 -1,600 Descending Cleveland Center
Fri 08:54:55 AM 42.4147 -83.4239 21° North 266 306 7,700 -1,313 Descending Cleveland Center
Fri 08:56:03 AM 42.4906 -83.3933 17° North 203 234 7,000 -465 Descending Cleveland Center
Fri 08:57:04 AM 42.5411 -83.3703 19° North 190 219 6,700 -934 Descending Cleveland Center
Fri 08:58:05 AM 42.5797 -83.3183 45° Northeast 197 227 5,100 -1,180 Descending Cleveland Center
Fri 08:59:06 AM 42.5564 -83.2497 115° Southeast 187 215 4,300 -787 Descending Cleveland Center

Login

Don't have an account? Register now (free) for customized features, flight alerts, and more!